<?xml version="1.0" encoding="UTF-8" standalone="no" ?>
<gpx xmlns="http://www.topografix.com/GPX/1/1" xmlns:xsi="http://www.w3.org/2001/XMLSchema-instance" xsi:schemaLocation="http://www.topografix.com/GPX/1/1 http://www.topografix.com/GPX/1/1/gpx.xsd" version="1.1" creator="VisuGPX - https://www.visugpx.com">
  <metadata>
    <name>le long de la Cascade de la Cavette</name>
  </metadata>
  <trk>
    <name><![CDATA[2025 02 20 le long de la Cascade de la Cavette]]></name>
    <trkseg>
      <trkpt lat="45.26503" lon="6.36695">
        <ele>607.81982</ele>
        <time>2025-02-20T13:38:46.000Z</time>
      </trkpt>
      <trkpt lat="45.26501" lon="6.36696">
        <ele>609.41541</ele>
        <time>2025-02-20T13:38:48.439Z</time>
      </trkpt>
      <trkpt lat="45.265" lon="6.36694">
        <ele>609.13116</ele>
        <time>2025-02-20T13:38:51.000Z</time>
      </trkpt>
      <trkpt lat="45.26496" lon="6.36696">
        <ele>609.15405</ele>
        <time>2025-02-20T13:38:53.000Z</time>
      </trkpt>
      <trkpt lat="45.26495" lon="6.36694">
        <ele>609.38538</ele>
        <time>2025-02-20T13:38:55.000Z</time>
      </trkpt>
      <trkpt lat="45.26493" lon="6.36691">
        <ele>609.51422</ele>
        <time>2025-02-20T13:38:58.000Z</time>
      </trkpt>
      <trkpt lat="45.26492" lon="6.36688">
        <ele>609.97052</ele>
        <time>2025-02-20T13:39:00.000Z</time>
      </trkpt>
      <trkpt lat="45.2649" lon="6.36686">
        <ele>610.1582</ele>
        <time>2025-02-20T13:39:02.000Z</time>
      </trkpt>
      <trkpt lat="45.26489" lon="6.36683">
        <ele>610.14648</ele>
        <time>2025-02-20T13:39:05.000Z</time>
      </trkpt>
      <trkpt lat="45.26491" lon="6.36679">
        <ele>610.11658</ele>
        <time>2025-02-20T13:39:07.000Z</time>
      </trkpt>
      <trkpt lat="45.2649" lon="6.36677">
        <ele>610.15289</ele>
        <time>2025-02-20T13:39:09.000Z</time>
      </trkpt>
      <trkpt lat="45.26488" lon="6.36674">
        <ele>610.17206</ele>
        <time>2025-02-20T13:39:11.000Z</time>
      </trkpt>
      <trkpt lat="45.26486" lon="6.36672">
        <ele>610.21423</ele>
        <time>2025-02-20T13:39:13.000Z</time>
      </trkpt>
      <trkpt lat="45.26485" lon="6.36671">
        <ele>610.21918</ele>
        <time>2025-02-20T13:39:15.000Z</time>
      </trkpt>
      <trkpt lat="45.26483" lon="6.36671">
        <ele>610.24078</ele>
        <time>2025-02-20T13:39:17.000Z</time>
      </trkpt>
      <trkpt lat="45.2648" lon="6.36671">
        <ele>610.31183</ele>
        <time>2025-02-20T13:39:19.000Z</time>
      </trkpt>
      <trkpt lat="45.26478" lon="6.36673">
        <ele>610.40588</ele>
        <time>2025-02-20T13:39:21.000Z</time>
      </trkpt>
      <trkpt lat="45.26476" lon="6.36674">
        <ele>610.53223</ele>
        <time>2025-02-20T13:39:23.000Z</time>
      </trkpt>
      <trkpt lat="45.26474" lon="6.36675">
        <ele>610.71857</ele>
        <time>2025-02-20T13:39:25.000Z</time>
      </trkpt>
      <trkpt lat="45.26472" lon="6.36673">
        <ele>610.81506</ele>
        <time>2025-02-20T13:39:27.000Z</time>
      </trkpt>
      <trkpt lat="45.2647" lon="6.36671">
        <ele>611.04797</ele>
        <time>2025-02-20T13:39:29.000Z</time>
      </trkpt>
      <trkpt lat="45.26469" lon="6.36666">
        <ele>611.03864</ele>
        <time>2025-02-20T13:39:31.000Z</time>
      </trkpt>
      <trkpt lat="45.26468" lon="6.36664">
        <ele>611.14282</ele>
        <time>2025-02-20T13:39:33.000Z</time>
      </trkpt>
      <trkpt lat="45.26466" lon="6.36664">
        <ele>611.38831</ele>
        <time>2025-02-20T13:39:35.000Z</time>
      </trkpt>
      <trkpt lat="45.26464" lon="6.36665">
        <ele>611.58502</ele>
        <time>2025-02-20T13:39:38.000Z</time>
      </trkpt>
      <trkpt lat="45.26461" lon="6.36666">
        <ele>611.69763</ele>
        <time>2025-02-20T13:39:40.000Z</time>
      </trkpt>
      <trkpt lat="45.26459" lon="6.36665">
        <ele>611.58337</ele>
        <time>2025-02-20T13:39:43.000Z</time>
      </trkpt>
      <trkpt lat="45.26457" lon="6.36665">
        <ele>611.66791</ele>
        <time>2025-02-20T13:39:46.000Z</time>
      </trkpt>
      <trkpt lat="45.26455" lon="6.36663">
        <ele>611.83069</ele>
        <time>2025-02-20T13:39:49.000Z</time>
      </trkpt>
      <trkpt lat="45.26452" lon="6.36661">
        <ele>612.12286</ele>
        <time>2025-02-20T13:39:52.000Z</time>
      </trkpt>
      <trkpt lat="45.2645" lon="6.36661">
        <ele>612.37537</ele>
        <time>2025-02-20T13:39:55.000Z</time>
      </trkpt>
      <trkpt lat="45.26449" lon="6.36659">
        <ele>612.56885</ele>
        <time>2025-02-20T13:39:58.000Z</time>
      </trkpt>
      <trkpt lat="45.26447" lon="6.36657">
        <ele>612.77814</ele>
        <time>2025-02-20T13:40:00.000Z</time>
      </trkpt>
      <trkpt lat="45.26446" lon="6.36656">
        <ele>612.88562</ele>
        <time>2025-02-20T13:40:02.000Z</time>
      </trkpt>
      <trkpt lat="45.26444" lon="6.36654">
        <ele>612.94745</ele>
        <time>2025-02-20T13:40:05.000Z</time>
      </trkpt>
      <trkpt lat="45.26442" lon="6.36652">
        <ele>613.11249</ele>
        <time>2025-02-20T13:40:07.000Z</time>
      </trkpt>
      <trkpt lat="45.26441" lon="6.36649">
        <ele>613.20917</ele>
        <time>2025-02-20T13:40:09.000Z</time>
      </trkpt>
      <trkpt lat="45.26441" lon="6.36645">
        <ele>613.32971</ele>
        <time>2025-02-20T13:40:11.000Z</time>
      </trkpt>
      <trkpt lat="45.2644" lon="6.36643">
        <ele>613.33679</ele>
        <time>2025-02-20T13:40:13.000Z</time>
      </trkpt>
      <trkpt lat="45.26437" lon="6.36641">
        <ele>613.35187</ele>
        <time>2025-02-20T13:40:19.000Z</time>
      </trkpt>
      <trkpt lat="45.26436" lon="6.3664">
        <ele>613.35596</ele>
        <time>2025-02-20T13:40:21.000Z</time>
      </trkpt>
      <trkpt lat="45.26434" lon="6.36639">
        <ele>613.50073</ele>
        <time>2025-02-20T13:40:24.000Z</time>
      </trkpt>
      <trkpt lat="45.26432" lon="6.36639">
        <ele>613.70129</ele>
        <time>2025-02-20T13:40:27.000Z</time>
      </trkpt>
      <trkpt lat="45.2643" lon="6.3664">
        <ele>613.71143</ele>
        <time>2025-02-20T13:40:30.000Z</time>
      </trkpt>
      <trkpt lat="45.26428" lon="6.36639">
        <ele>613.62872</ele>
        <time>2025-02-20T13:40:33.000Z</time>
      </trkpt>
      <trkpt lat="45.26426" lon="6.36638">
        <ele>613.7699</ele>
        <time>2025-02-20T13:40:55.000Z</time>
      </trkpt>
      <trkpt lat="45.26428" lon="6.36641">
        <ele>614.13409</ele>
        <time>2025-02-20T13:41:17.000Z</time>
      </trkpt>
      <trkpt lat="45.2643" lon="6.36642">
        <ele>614.26874</ele>
        <time>2025-02-20T13:41:19.000Z</time>
      </trkpt>
      <trkpt lat="45.26433" lon="6.36644">
        <ele>614.35986</ele>
        <time>2025-02-20T13:41:21.000Z</time>
      </trkpt>
      <trkpt lat="45.26435" lon="6.36644">
        <ele>614.33307</ele>
        <time>2025-02-20T13:41:23.000Z</time>
      </trkpt>
      <trkpt lat="45.26437" lon="6.36643">
        <ele>614.40027</ele>
        <time>2025-02-20T13:41:25.000Z</time>
      </trkpt>
      <trkpt lat="45.26439" lon="6.36642">
        <ele>614.34857</ele>
        <time>2025-02-20T13:41:27.000Z</time>
      </trkpt>
      <trkpt lat="45.26442" lon="6.36641">
        <ele>614.24268</ele>
        <time>2025-02-20T13:41:29.000Z</time>
      </trkpt>
      <trkpt lat="45.26444" lon="6.36641">
        <ele>614.48596</ele>
        <time>2025-02-20T13:41:31.000Z</time>
      </trkpt>
      <trkpt lat="45.26447" lon="6.36639">
        <ele>614.49023</ele>
        <time>2025-02-20T13:41:39.000Z</time>
      </trkpt>
      <trkpt lat="45.26449" lon="6.36637">
        <ele>614.45984</ele>
        <time>2025-02-20T13:41:41.000Z</time>
      </trkpt>
      <trkpt lat="45.26451" lon="6.36636">
        <ele>614.63696</ele>
        <time>2025-02-20T13:41:43.000Z</time>
      </trkpt>
      <trkpt lat="45.26454" lon="6.36636">
        <ele>614.82556</ele>
        <time>2025-02-20T13:41:45.000Z</time>
      </trkpt>
      <trkpt lat="45.26455" lon="6.36634">
        <ele>615.10712</ele>
        <time>2025-02-20T13:41:52.000Z</time>
      </trkpt>
      <trkpt lat="45.26457" lon="6.36635">
        <ele>615.33087</ele>
        <time>2025-02-20T13:41:56.000Z</time>
      </trkpt>
      <trkpt lat="45.2646" lon="6.36636">
        <ele>615.64038</ele>
        <time>2025-02-20T13:42:01.000Z</time>
      </trkpt>
      <trkpt lat="45.26462" lon="6.36636">
        <ele>615.78943</ele>
        <time>2025-02-20T13:42:04.000Z</time>
      </trkpt>
      <trkpt lat="45.26464" lon="6.36637">
        <ele>616.02942</ele>
        <time>2025-02-20T13:42:08.000Z</time>
      </trkpt>
      <trkpt lat="45.26466" lon="6.3664">
        <ele>616.24951</ele>
        <time>2025-02-20T13:42:10.000Z</time>
      </trkpt>
      <trkpt lat="45.26468" lon="6.36642">
        <ele>616.54791</ele>
        <time>2025-02-20T13:42:13.000Z</time>
      </trkpt>
      <trkpt lat="45.26469" lon="6.36644">
        <ele>616.80206</ele>
        <time>2025-02-20T13:42:15.000Z</time>
      </trkpt>
      <trkpt lat="45.2647" lon="6.36647">
        <ele>616.8606</ele>
        <time>2025-02-20T13:42:17.000Z</time>
      </trkpt>
      <trkpt lat="45.26472" lon="6.36649">
        <ele>616.92731</ele>
        <time>2025-02-20T13:42:19.000Z</time>
      </trkpt>
      <trkpt lat="45.26474" lon="6.36653">
        <ele>616.95532</ele>
        <time>2025-02-20T13:42:21.000Z</time>
      </trkpt>
      <trkpt lat="45.26475" lon="6.36656">
        <ele>616.9447</ele>
        <time>2025-02-20T13:42:23.000Z</time>
      </trkpt>
      <trkpt lat="45.26477" lon="6.36658">
        <ele>616.86487</ele>
        <time>2025-02-20T13:42:25.000Z</time>
      </trkpt>
      <trkpt lat="45.26478" lon="6.3666">
        <ele>616.87567</ele>
        <time>2025-02-20T13:42:27.000Z</time>
      </trkpt>
      <trkpt lat="45.2648" lon="6.36662">
        <ele>617.005</ele>
        <time>2025-02-20T13:42:30.000Z</time>
      </trkpt>
      <trkpt lat="45.2648" lon="6.36667">
        <ele>616.77509</ele>
        <time>2025-02-20T13:42:33.000Z</time>
      </trkpt>
      <trkpt lat="45.26481" lon="6.3667">
        <ele>616.98743</ele>
        <time>2025-02-20T13:42:35.000Z</time>
      </trkpt>
      <trkpt lat="45.26481" lon="6.36673">
        <ele>617.0921</ele>
        <time>2025-02-20T13:42:37.000Z</time>
      </trkpt>
      <trkpt lat="45.26478" lon="6.36673">
        <ele>616.81561</ele>
        <time>2025-02-20T13:42:50.000Z</time>
      </trkpt>
      <trkpt lat="45.2648" lon="6.36671">
        <ele>616.31165</ele>
        <time>2025-02-20T13:42:55.000Z</time>
      </trkpt>
      <trkpt lat="45.26482" lon="6.36672">
        <ele>615.89484</ele>
        <time>2025-02-20T13:42:57.000Z</time>
      </trkpt>
      <trkpt lat="45.26484" lon="6.36674">
        <ele>615.54529</ele>
        <time>2025-02-20T13:43:00.000Z</time>
      </trkpt>
      <trkpt lat="45.26485" lon="6.36677">
        <ele>615.06836</ele>
        <time>2025-02-20T13:43:02.000Z</time>
      </trkpt>
      <trkpt lat="45.26483" lon="6.36677">
        <ele>614.68707</ele>
        <time>2025-02-20T13:43:05.000Z</time>
      </trkpt>
      <trkpt lat="45.26485" lon="6.3668">
        <ele>614.1463</ele>
        <time>2025-02-20T13:43:08.000Z</time>
      </trkpt>
      <trkpt lat="45.26486" lon="6.36681">
        <ele>613.6582</ele>
        <time>2025-02-20T13:43:11.000Z</time>
      </trkpt>
      <trkpt lat="45.26489" lon="6.36681">
        <ele>613.17456</ele>
        <time>2025-02-20T13:43:14.000Z</time>
      </trkpt>
      <trkpt lat="45.26491" lon="6.36681">
        <ele>612.62347</ele>
        <time>2025-02-20T13:43:17.000Z</time>
      </trkpt>
      <trkpt lat="45.26494" lon="6.36681">
        <ele>612.14014</ele>
        <time>2025-02-20T13:43:20.000Z</time>
      </trkpt>
      <trkpt lat="45.26496" lon="6.36682">
        <ele>611.76532</ele>
        <time>2025-02-20T13:43:22.000Z</time>
      </trkpt>
      <trkpt lat="45.26498" lon="6.36685">
        <ele>611.44849</ele>
        <time>2025-02-20T13:43:24.000Z</time>
      </trkpt>
      <trkpt lat="45.265" lon="6.36687">
        <ele>611.16931</ele>
        <time>2025-02-20T13:43:26.000Z</time>
      </trkpt>
      <trkpt lat="45.265" lon="6.3669">
        <ele>610.89069</ele>
        <time>2025-02-20T13:43:29.000Z</time>
      </trkpt>
      <trkpt lat="45.265" lon="6.36694">
        <ele>610.75317</ele>
        <time>2025-02-20T13:43:34.000Z</time>
      </trkpt>
      <trkpt lat="45.265" lon="6.36697">
        <ele>610.51178</ele>
        <time>2025-02-20T13:43:37.000Z</time>
      </trkpt>
      <trkpt lat="45.26502" lon="6.36695">
        <ele>610.48779</ele>
        <time>2025-02-20T13:43:44.000Z</time>
      </trkpt>
      <trkpt lat="45.26501" lon="6.36693">
        <ele>610.26495</ele>
        <time>2025-02-20T13:43:46.000Z</time>
      </trkpt>
      <trkpt lat="45.26503" lon="6.36689">
        <ele>610.03455</ele>
        <time>2025-02-20T13:43:48.000Z</time>
      </trkpt>
      <trkpt lat="45.26505" lon="6.36686">
        <ele>609.99921</ele>
        <time>2025-02-20T13:43:50.000Z</time>
      </trkpt>
      <trkpt lat="45.26507" lon="6.36686">
        <ele>610.0285</ele>
        <time>2025-02-20T13:43:53.000Z</time>
      </trkpt>
      <trkpt lat="45.26509" lon="6.36685">
        <ele>609.95178</ele>
        <time>2025-02-20T13:43:55.000Z</time>
      </trkpt>
      <trkpt lat="45.26511" lon="6.36686">
        <ele>609.88251</ele>
        <time>2025-02-20T13:43:57.000Z</time>
      </trkpt>
      <trkpt lat="45.26513" lon="6.36687">
        <ele>609.88135</ele>
        <time>2025-02-20T13:43:59.000Z</time>
      </trkpt>
      <trkpt lat="45.26515" lon="6.36688">
        <ele>609.87604</ele>
        <time>2025-02-20T13:44:01.000Z</time>
      </trkpt>
      <trkpt lat="45.26517" lon="6.36688">
        <ele>609.87927</ele>
        <time>2025-02-20T13:44:03.000Z</time>
      </trkpt>
      <trkpt lat="45.26519" lon="6.36689">
        <ele>609.86682</ele>
        <time>2025-02-20T13:44:06.000Z</time>
      </trkpt>
      <trkpt lat="45.26521" lon="6.36691">
        <ele>609.8114</ele>
        <time>2025-02-20T13:44:08.000Z</time>
      </trkpt>
      <trkpt lat="45.26523" lon="6.36694">
        <ele>609.77747</ele>
        <time>2025-02-20T13:44:11.000Z</time>
      </trkpt>
      <trkpt lat="45.26525" lon="6.36695">
        <ele>609.70837</ele>
        <time>2025-02-20T13:44:14.000Z</time>
      </trkpt>
      <trkpt lat="45.26527" lon="6.36694">
        <ele>609.59802</ele>
        <time>2025-02-20T13:44:17.000Z</time>
      </trkpt>
      <trkpt lat="45.26529" lon="6.36693">
        <ele>609.51715</ele>
        <time>2025-02-20T13:44:20.000Z</time>
      </trkpt>
      <trkpt lat="45.26532" lon="6.36691">
        <ele>609.43561</ele>
        <time>2025-02-20T13:44:23.000Z</time>
      </trkpt>
      <trkpt lat="45.26533" lon="6.3669">
        <ele>609.30524</ele>
        <time>2025-02-20T13:44:26.000Z</time>
      </trkpt>
      <trkpt lat="45.26535" lon="6.3669">
        <ele>609.14685</ele>
        <time>2025-02-20T13:44:28.000Z</time>
      </trkpt>
      <trkpt lat="45.26537" lon="6.36689">
        <ele>608.9585</ele>
        <time>2025-02-20T13:44:31.000Z</time>
      </trkpt>
      <trkpt lat="45.26539" lon="6.36688">
        <ele>608.68457</ele>
        <time>2025-02-20T13:44:33.000Z</time>
      </trkpt>
      <trkpt lat="45.26541" lon="6.36688">
        <ele>608.43286</ele>
        <time>2025-02-20T13:44:35.000Z</time>
      </trkpt>
      <trkpt lat="45.26544" lon="6.36688">
        <ele>608.17188</ele>
        <time>2025-02-20T13:44:37.000Z</time>
      </trkpt>
      <trkpt lat="45.26546" lon="6.36688">
        <ele>607.93451</ele>
        <time>2025-02-20T13:44:39.000Z</time>
      </trkpt>
      <trkpt lat="45.26548" lon="6.36688">
        <ele>607.75964</ele>
        <time>2025-02-20T13:44:42.000Z</time>
      </trkpt>
      <trkpt lat="45.26551" lon="6.36691">
        <ele>607.5686</ele>
        <time>2025-02-20T13:44:44.000Z</time>
      </trkpt>
      <trkpt lat="45.26552" lon="6.36693">
        <ele>607.41992</ele>
        <time>2025-02-20T13:44:46.000Z</time>
      </trkpt>
      <trkpt lat="45.26549" lon="6.36693">
        <ele>607.56018</ele>
        <time>2025-02-20T13:44:52.000Z</time>
      </trkpt>
      <trkpt lat="45.26547" lon="6.36693">
        <ele>607.76953</ele>
        <time>2025-02-20T13:44:58.000Z</time>
      </trkpt>
      <trkpt lat="45.26546" lon="6.36694">
        <ele>607.96259</ele>
        <time>2025-02-20T13:45:11.000Z</time>
      </trkpt>
      <trkpt lat="45.26545" lon="6.36697">
        <ele>608.15515</ele>
        <time>2025-02-20T13:45:17.000Z</time>
      </trkpt>
      <trkpt lat="45.26547" lon="6.36697">
        <ele>608.43927</ele>
        <time>2025-02-20T13:45:24.000Z</time>
      </trkpt>
      <trkpt lat="45.26548" lon="6.36695">
        <ele>608.61359</ele>
        <time>2025-02-20T13:45:37.000Z</time>
      </trkpt>
      <trkpt lat="45.2655" lon="6.36694">
        <ele>608.8125</ele>
        <time>2025-02-20T13:45:41.000Z</time>
      </trkpt>
      <trkpt lat="45.26552" lon="6.36695">
        <ele>609.03027</ele>
        <time>2025-02-20T13:45:49.000Z</time>
      </trkpt>
      <trkpt lat="45.26553" lon="6.36692">
        <ele>609.23627</ele>
        <time>2025-02-20T13:46:03.000Z</time>
      </trkpt>
      <trkpt lat="45.26552" lon="6.36691">
        <ele>609.5332</ele>
        <time>2025-02-20T13:46:09.000Z</time>
      </trkpt>
      <trkpt lat="45.26551" lon="6.36688">
        <ele>609.32275</ele>
        <time>2025-02-20T13:47:55.000Z</time>
      </trkpt>
      <trkpt lat="45.26553" lon="6.36686">
        <ele>609.39429</ele>
        <time>2025-02-20T13:49:03.000Z</time>
      </trkpt>
      <trkpt lat="45.26555" lon="6.36686">
        <ele>609.48016</ele>
        <time>2025-02-20T13:49:06.000Z</time>
      </trkpt>
      <trkpt lat="45.26558" lon="6.36686">
        <ele>609.61115</ele>
        <time>2025-02-20T13:49:11.000Z</time>
      </trkpt>
      <trkpt lat="45.2656" lon="6.36685">
        <ele>609.69495</ele>
        <time>2025-02-20T13:49:14.000Z</time>
      </trkpt>
      <trkpt lat="45.26561" lon="6.36684">
        <ele>609.60071</ele>
        <time>2025-02-20T13:49:16.000Z</time>
      </trkpt>
      <trkpt lat="45.26564" lon="6.36683">
        <ele>609.5387</ele>
        <time>2025-02-20T13:49:19.000Z</time>
      </trkpt>
      <trkpt lat="45.26565" lon="6.36682">
        <ele>609.48682</ele>
        <time>2025-02-20T13:49:21.000Z</time>
      </trkpt>
      <trkpt lat="45.26566" lon="6.36679">
        <ele>609.38489</ele>
        <time>2025-02-20T13:49:23.000Z</time>
      </trkpt>
      <trkpt lat="45.26567" lon="6.36676">
        <ele>609.32825</ele>
        <time>2025-02-20T13:49:28.000Z</time>
      </trkpt>
      <trkpt lat="45.26568" lon="6.36673">
        <ele>609.14032</ele>
        <time>2025-02-20T13:49:31.000Z</time>
      </trkpt>
      <trkpt lat="45.2657" lon="6.36672">
        <ele>608.84131</ele>
        <time>2025-02-20T13:49:33.000Z</time>
      </trkpt>
      <trkpt lat="45.26573" lon="6.36675">
        <ele>608.62878</ele>
        <time>2025-02-20T13:49:35.000Z</time>
      </trkpt>
      <trkpt lat="45.26575" lon="6.36677">
        <ele>608.50122</ele>
        <time>2025-02-20T13:49:37.000Z</time>
      </trkpt>
      <trkpt lat="45.26575" lon="6.36681">
        <ele>608.20355</ele>
        <time>2025-02-20T13:49:40.000Z</time>
      </trkpt>
      <trkpt lat="45.26573" lon="6.36684">
        <ele>608.05328</ele>
        <time>2025-02-20T13:49:42.000Z</time>
      </trkpt>
      <trkpt lat="45.26571" lon="6.36686">
        <ele>607.85065</ele>
        <time>2025-02-20T13:49:44.000Z</time>
      </trkpt>
      <trkpt lat="45.26568" lon="6.36687">
        <ele>607.7439</ele>
        <time>2025-02-20T13:49:46.000Z</time>
      </trkpt>
      <trkpt lat="45.26566" lon="6.3669">
        <ele>607.69128</ele>
        <time>2025-02-20T13:49:48.000Z</time>
      </trkpt>
      <trkpt lat="45.26564" lon="6.36693">
        <ele>607.34583</ele>
        <time>2025-02-20T13:49:50.000Z</time>
      </trkpt>
      <trkpt lat="45.26563" lon="6.36695">
        <ele>607.50916</ele>
        <time>2025-02-20T13:49:52.000Z</time>
      </trkpt>
      <trkpt lat="45.26561" lon="6.36697">
        <ele>607.53711</ele>
        <time>2025-02-20T13:49:54.000Z</time>
      </trkpt>
      <trkpt lat="45.26559" lon="6.36699">
        <ele>607.51697</ele>
        <time>2025-02-20T13:49:57.000Z</time>
      </trkpt>
      <trkpt lat="45.26557" lon="6.36701">
        <ele>607.5506</ele>
        <time>2025-02-20T13:50:00.000Z</time>
      </trkpt>
      <trkpt lat="45.26557" lon="6.36704">
        <ele>607.64319</ele>
        <time>2025-02-20T13:50:02.000Z</time>
      </trkpt>
      <trkpt lat="45.26557" lon="6.36707">
        <ele>607.94171</ele>
        <time>2025-02-20T13:50:04.000Z</time>
      </trkpt>
      <trkpt lat="45.26557" lon="6.3671">
        <ele>608.23889</ele>
        <time>2025-02-20T13:50:06.000Z</time>
      </trkpt>
      <trkpt lat="45.26557" lon="6.36713">
        <ele>608.47308</ele>
        <time>2025-02-20T13:50:11.000Z</time>
      </trkpt>
      <trkpt lat="45.26559" lon="6.36711">
        <ele>608.54089</ele>
        <time>2025-02-20T13:50:22.000Z</time>
      </trkpt>
      <trkpt lat="45.26557" lon="6.36712">
        <ele>608.53119</ele>
        <time>2025-02-20T13:50:26.000Z</time>
      </trkpt>
      <trkpt lat="45.26556" lon="6.36714">
        <ele>608.5307</ele>
        <time>2025-02-20T13:50:34.000Z</time>
      </trkpt>
      <trkpt lat="45.26552" lon="6.36711">
        <ele>608.68311</ele>
        <time>2025-02-20T13:50:39.000Z</time>
      </trkpt>
      <trkpt lat="45.26554" lon="6.36713">
        <ele>608.59473</ele>
        <time>2025-02-20T13:50:46.000Z</time>
      </trkpt>
      <trkpt lat="45.26555" lon="6.36712">
        <ele>608.44592</ele>
        <time>2025-02-20T13:50:54.000Z</time>
      </trkpt>
      <trkpt lat="45.26557" lon="6.36711">
        <ele>608.32288</ele>
        <time>2025-02-20T13:51:01.000Z</time>
      </trkpt>
      <trkpt lat="45.26556" lon="6.36714">
        <ele>608.1123</ele>
        <time>2025-02-20T13:51:04.000Z</time>
      </trkpt>
      <trkpt lat="45.26557" lon="6.36711">
        <ele>607.91077</ele>
        <time>2025-02-20T13:52:03.000Z</time>
      </trkpt>
    </trkseg>
  </trk>
</gpx>